Time;durP1;ratioP1;P1;durP2;ratioP2;P2;SDS_P1;SDS_P2;PMS_P1;PMS_P2;Temp;Humidity;BMP_temperature;BMP_pressure;BME280_temperature;BME280_humidity;BME280_pressure;Samples;Min_cycle;Max_cycle;Signal;HPM_P1;HPM_P2
2022/04/08 00:01:25;;;;;;;0.60;0.60;;;7.20;99.90;;;;;;5022857;28;20174;-82
2022/04/08 00:03:52;;;;;;;0.50;0.50;;;;;;;;;;5021470;28;20185;-82
2022/04/08 00:06:18;;;;;;;0.53;0.53;;;;;;;;;;5021346;28;20414;-82
2022/04/08 00:08:45;;;;;;;0.50;0.50;;;;;;;;;;5021529;28;20445;-82
2022/04/08 00:11:11;;;;;;;1.43;0.80;;;7.30;99.90;;;;;;5020856;28;20452;-82
2022/04/08 00:13:37;;;;;;;0.70;0.60;;;7.30;99.90;;;;;;5021362;28;20301;-82
2022/04/08 00:16:03;;;;;;;0.80;0.70;;;7.20;99.90;;;;;;5021390;28;20512;-82
2022/04/08 00:18:30;;;;;;;1.53;0.60;;;;;;;;;;5021684;28;20215;-82
2022/04/08 00:20:56;;;;;;;1.00;0.90;;;7.30;99.90;;;;;;5022113;28;20401;-81
2022/04/08 00:23:22;;;;;;;0.80;0.80;;;;;;;;;;5020541;28;20182;-82
2022/04/08 00:25:48;;;;;;;0.70;0.70;;;7.30;99.90;;;;;;5020950;28;20465;-82
2022/04/08 00:28:13;;;;;;;2.07;0.70;;;7.40;99.90;;;;;;5021064;28;20904;-83
2022/04/08 00:30:39;;;;;;;1.00;0.80;;;7.40;99.90;;;;;;5021850;28;20592;-82
2022/04/08 00:33:05;;;;;;;1.37;0.60;;;7.40;99.90;;;;;;5021536;28;20194;-82
2022/04/08 00:35:31;;;;;;;0.93;0.80;;;7.40;99.90;;;;;;5020245;28;20258;-81
2022/04/08 00:37:57;;;;;;;3.67;0.93;;;;;;;;;;5021036;28;20266;-82
2022/04/08 00:40:23;;;;;;;1.23;0.80;;;;;;;;;;5019296;28;20258;-82
2022/04/08 00:42:49;;;;;;;1.10;1.00;;;7.30;99.90;;;;;;5019866;28;20406;-82
2022/04/08 00:45:15;;;;;;;0.50;0.50;;;7.30;99.90;;;;;;5019994;28;20178;-82
2022/04/08 00:47:41;;;;;;;0.60;0.60;;;;;;;;;;5018149;28;20188;-82
2022/04/08 00:50:11;;;;;;;1.57;0.80;;;7.30;99.90;;;;;;5019125;28;20206;-81
2022/04/08 00:52:41;;;;;;;0.50;0.50;;;7.40;99.90;;;;;;5018371;28;20781;-82
2022/04/08 00:55:08;;;;;;;0.60;0.50;;;7.30;99.90;;;;;;5018405;28;20175;-82
2022/04/08 00:57:34;;;;;;;0.50;0.50;;;7.40;99.90;;;;;;5016971;28;20324;-82
2022/04/08 01:00:09;;;;;;;0.70;0.70;;;7.40;99.90;;;;;;5019105;28;20437;-82
2022/04/08 01:02:37;;;;;;;0.60;0.60;;;7.40;99.90;;;;;;5019654;28;20421;-81
2022/04/08 01:05:04;;;;;;;1.03;0.70;;;7.40;99.90;;;;;;5020124;28;20429;-82
2022/04/08 01:07:31;;;;;;;0.50;0.50;;;7.50;99.90;;;;;;5019369;28;20460;-82
2022/04/08 01:09:58;;;;;;;0.60;0.60;;;7.50;99.90;;;;;;5020536;28;20230;-82
2022/04/08 01:12:24;;;;;;;0.63;0.60;;;7.50;99.90;;;;;;5019980;28;20484;-82
2022/04/08 01:14:57;;;;;;;0.50;0.50;;;7.40;99.90;;;;;;5021465;28;20410;-82
2022/04/08 01:17:22;;;;;;;0.70;0.70;;;7.40;99.90;;;;;;5020336;28;20182;-82
2022/04/08 01:19:48;;;;;;;0.80;0.80;;;7.30;99.90;;;;;;5020322;28;20207;-82
2022/04/08 01:22:14;;;;;;;0.50;0.47;;;7.30;99.90;;;;;;5021574;28;20182;-82
2022/04/08 01:24:43;;;;;;;0.80;0.63;;;7.30;99.90;;;;;;5020896;28;20191;-82
2022/04/08 01:27:10;;;;;;;0.60;0.60;;;7.30;99.90;;;;;;5019874;28;20183;-83
2022/04/08 01:29:36;;;;;;;0.60;0.60;;;7.30;99.90;;;;;;5021667;28;20225;-82
2022/04/08 01:32:01;;;;;;;1.27;0.80;;;7.20;99.90;;;;;;5021136;28;20457;-82
2022/04/08 01:34:27;;;;;;;1.23;0.50;;;7.20;99.90;;;;;;5021082;28;20179;-83
2022/04/08 01:36:53;;;;;;;1.80;0.90;;;7.20;99.90;;;;;;5020623;28;20187;-82
2022/04/08 01:39:18;;;;;;;0.70;0.70;;;7.20;99.90;;;;;;5021012;28;20206;-82
2022/04/08 01:41:44;;;;;;;1.07;0.83;;;7.20;99.90;;;;;;5019229;28;20183;-82
2022/04/08 01:44:09;;;;;;;1.00;0.70;;;7.10;99.90;;;;;;5020161;28;20181;-83
2022/04/08 01:46:35;;;;;;;1.27;1.07;;;;;;;;;;5018991;28;20542;-82
2022/04/08 01:49:01;;;;;;;3.13;0.80;;;7.10;99.90;;;;;;5019933;28;20649;-82
2022/04/08 01:51:27;;;;;;;2.20;0.80;;;7.20;99.90;;;;;;5018876;28;20261;-82
2022/04/08 01:53:52;;;;;;;0.90;0.80;;;7.20;99.90;;;;;;5020531;28;20201;-82
2022/04/08 01:56:18;;;;;;;0.70;0.50;;;7.20;99.90;;;;;;5018378;28;20648;-82
2022/04/08 01:58:43;;;;;;;0.73;0.50;;;7.20;99.90;;;;;;5018567;28;20257;-82
2022/04/08 02:01:09;;;;;;;0.87;0.87;;;7.20;99.90;;;;;;5021058;28;20580;-82
2022/04/08 02:03:35;;;;;;;0.80;0.80;;;7.20;99.90;;;;;;5020107;28;20174;-82
2022/04/08 02:06:01;;;;;;;1.10;0.80;;;;;;;;;;5020339;28;20185;-82
2022/04/08 02:08:26;;;;;;;0.80;0.80;;;7.20;99.90;;;;;;5018899;28;20202;-82
2022/04/08 02:10:53;;;;;;;1.10;1.10;;;7.10;99.90;;;;;;5018780;28;20207;-82
2022/04/08 02:13:19;;;;;;;0.50;0.50;;;7.20;99.90;;;;;;5018999;28;20168;-82
2022/04/08 02:15:46;;;;;;;1.40;1.20;;;7.20;99.90;;;;;;5018741;28;20791;-82
2022/04/08 02:18:13;;;;;;;1.37;0.97;;;6.90;99.90;;;;;;5018930;28;20202;-82
2022/04/08 02:20:39;;;;;;;0.97;0.97;;;6.90;99.90;;;;;;5018360;28;20182;-82
2022/04/08 02:23:05;;;;;;;1.47;1.10;;;6.70;99.90;;;;;;5018779;28;20187;-83
2022/04/08 02:25:31;;;;;;;0.90;0.77;;;6.60;99.90;;;;;;5020243;28;20199;-82
2022/04/08 02:27:57;;;;;;;1.83;1.07;;;6.50;99.90;;;;;;5019076;28;20551;-82
2022/04/08 02:30:22;;;;;;;1.97;1.10;;;6.40;99.90;;;;;;5019416;28;20202;-82
2022/04/08 02:32:48;;;;;;;0.60;0.60;;;6.40;99.90;;;;;;5019093;28;20183;-82
2022/04/08 02:35:14;;;;;;;1.13;0.90;;;6.30;99.90;;;;;;5019928;28;20189;-82
2022/04/08 02:37:40;;;;;;;0.73;0.73;;;6.30;99.90;;;;;;5020640;28;20208;-82
2022/04/08 02:40:07;;;;;;;1.33;0.80;;;6.30;99.90;;;;;;5030511;28;20225;-81
2022/04/08 02:42:32;;;;;;;1.53;1.07;;;6.30;99.90;;;;;;5033810;28;20175;-81
2022/04/08 02:44:58;;;;;;;1.00;0.90;;;6.30;99.90;;;;;;5033688;28;20418;-81
2022/04/08 02:47:24;;;;;;;1.10;0.80;;;6.20;99.90;;;;;;5020665;28;20273;-83
2022/04/08 02:49:50;;;;;;;2.20;1.00;;;6.10;99.90;;;;;;5019034;28;20496;-82
2022/04/08 02:52:16;;;;;;;0.90;0.90;;;6.10;99.90;;;;;;5016682;28;20206;-82
2022/04/08 02:54:42;;;;;;;1.90;1.20;;;6.00;99.90;;;;;;5017649;28;20179;-82
2022/04/08 02:57:08;;;;;;;4.20;1.30;;;6.00;99.90;;;;;;5017715;28;20414;-81
2022/04/08 02:59:33;;;;;;;3.93;1.10;;;6.00;99.90;;;;;;5017909;28;20202;-82
2022/04/08 03:01:59;;;;;;;2.77;1.03;;;6.00;99.90;;;;;;5018972;28;20262;-82
2022/04/08 03:04:25;;;;;;;1.27;1.10;;;5.90;99.90;;;;;;5017942;28;20189;-82
2022/04/08 03:06:55;;;;;;;3.27;1.13;;;5.90;99.90;;;;;;5017995;28;20258;-82
2022/04/08 03:09:21;;;;;;;2.73;1.03;;;5.90;99.90;;;;;;5016645;28;20202;-82
2022/04/08 03:11:47;;;;;;;1.20;1.10;;;5.90;99.90;;;;;;5016783;28;20816;-82
2022/04/08 03:14:13;;;;;;;4.73;1.43;;;5.90;99.90;;;;;;5017073;28;20183;-81
2022/04/08 03:16:39;;;;;;;1.53;1.07;;;5.90;99.90;;;;;;5017162;28;20421;-81
2022/04/08 03:19:04;;;;;;;2.13;0.77;;;5.80;99.90;;;;;;5016924;28;20213;-82
2022/04/08 03:21:30;;;;;;;3.07;1.20;;;5.80;99.90;;;;;;5016578;28;20205;-81
2022/04/08 03:23:57;;;;;;;4.00;1.50;;;5.80;99.90;;;;;;5017411;28;20174;-82
2022/04/08 03:26:23;;;;;;;6.73;1.17;;;5.70;99.90;;;;;;5015972;28;20504;-82
2022/04/08 03:28:49;;;;;;;1.97;1.30;;;5.70;99.90;;;;;;5016365;28;20860;-82
2022/04/08 03:31:14;;;;;;;3.07;1.37;;;5.70;99.90;;;;;;5016637;28;20210;-82
2022/04/08 03:33:40;;;;;;;5.13;1.50;;;5.80;99.90;;;;;;5018991;28;20178;-82
2022/04/08 03:36:06;;;;;;;7.10;1.80;;;5.70;99.90;;;;;;5021655;28;20181;-82
2022/04/08 03:38:32;;;;;;;1.93;1.40;;;5.70;99.90;;;;;;5020976;28;20220;-82
2022/04/08 03:40:58;;;;;;;3.97;1.67;;;5.60;99.90;;;;;;5020230;28;20188;-82
2022/04/08 03:43:23;;;;;;;2.83;1.77;;;5.60;99.90;;;;;;5020879;28;20183;-81
2022/04/08 03:45:49;;;;;;;3.03;1.70;;;5.60;99.90;;;;;;5020717;28;20537;-82
2022/04/08 03:48:15;;;;;;;3.13;1.40;;;5.60;99.90;;;;;;5019508;28;20206;-82
2022/04/08 03:50:42;;;;;;;3.37;1.60;;;5.50;99.90;;;;;;5019705;28;20659;-82
2022/04/08 03:53:12;;;;;;;5.57;1.90;;;5.60;99.90;;;;;;5019616;28;20172;-82
2022/04/08 03:55:38;;;;;;;2.50;1.50;;;5.60;99.90;;;;;;5019595;28;20187;-82
2022/04/08 03:58:04;;;;;;;4.20;1.90;;;5.60;99.90;;;;;;5020420;28;20598;-82
2022/04/08 04:00:30;;;;;;;4.97;1.53;;;5.60;99.90;;;;;;5028670;28;20185;-81
2022/04/08 04:02:55;;;;;;;4.60;1.50;;;5.50;99.90;;;;;;5034381;28;20171;-81
2022/04/08 04:05:21;;;;;;;1.43;1.20;;;5.50;99.90;;;;;;5018017;28;20180;-82
2022/04/08 04:07:47;;;;;;;4.20;1.63;;;5.40;99.90;;;;;;5016948;28;20180;-82
2022/04/08 04:10:12;;;;;;;4.53;1.60;;;5.50;99.90;;;;;;5020353;28;20646;-82
2022/04/08 04:12:39;;;;;;;2.70;1.53;;;5.60;99.90;;;;;;5019678;28;20207;-82
2022/04/08 04:15:08;;;;;;;3.07;1.37;;;5.50;99.90;;;;;;5020139;28;20179;-82
2022/04/08 04:17:33;;;;;;;2.03;1.10;;;5.50;99.90;;;;;;5019649;28;20794;-82
2022/04/08 04:19:59;;;;;;;1.73;1.43;;;5.50;99.90;;;;;;5021237;28;20433;-82
2022/04/08 04:22:25;;;;;;;4.23;1.40;;;5.60;99.90;;;;;;5019663;28;20641;-83
2022/04/08 04:24:50;;;;;;;2.37;1.50;;;5.60;99.90;;;;;;5019664;28;20182;-82
2022/04/08 04:27:16;;;;;;;2.40;1.43;;;5.60;99.90;;;;;;5020152;28;20522;-82
2022/04/08 04:29:42;;;;;;;2.90;1.50;;;;;;;;;;5019347;28;20547;-82
2022/04/08 04:32:08;;;;;;;3.50;1.60;;;5.60;99.90;;;;;;5019428;28;20206;-82
2022/04/08 04:34:36;;;;;;;2.23;1.40;;;5.60;99.90;;;;;;5020631;28;20406;-83
2022/04/08 04:37:03;;;;;;;4.50;1.20;;;5.60;99.90;;;;;;5021625;28;20425;-83
2022/04/08 04:39:29;;;;;;;2.73;1.30;;;5.70;99.90;;;;;;5020309;28;20461;-82
2022/04/08 04:41:55;;;;;;;2.07;1.30;;;5.70;99.90;;;;;;5021426;28;20413;-82
2022/04/08 04:44:20;;;;;;;2.13;1.33;;;5.80;99.90;;;;;;5021384;28;20174;-82
2022/04/08 04:46:46;;;;;;;1.00;0.90;;;5.70;99.90;;;;;;5019995;28;20182;-82
2022/04/08 04:49:12;;;;;;;2.40;1.13;;;5.70;99.90;;;;;;5021401;28;20282;-82
2022/04/08 04:51:37;;;;;;;1.10;1.00;;;5.60;99.90;;;;;;5021229;28;20229;-82
2022/04/08 04:54:03;;;;;;;1.80;1.37;;;5.60;99.90;;;;;;5021429;28;20180;-82
2022/04/08 04:56:29;;;;;;;2.40;1.40;;;5.60;99.90;;;;;;5021539;28;20298;-83
2022/04/08 04:58:54;;;;;;;1.80;0.97;;;5.50;99.90;;;;;;5024521;28;20237;-83
2022/04/08 05:01:20;;;;;;;1.37;1.27;;;5.50;99.90;;;;;;5023599;28;20191;-83
2022/04/08 05:03:46;;;;;;;2.60;1.17;;;5.40;99.90;;;;;;5021530;28;20182;-82
2022/04/08 05:06:11;;;;;;;2.90;0.90;;;5.40;99.90;;;;;;5021090;28;20628;-82
2022/04/08 05:08:37;;;;;;;2.43;1.40;;;5.40;99.90;;;;;;5020094;28;20210;-82
2022/04/08 05:11:03;;;;;;;4.20;1.60;;;5.30;99.90;;;;;;5019572;28;20664;-82
2022/04/08 05:13:29;;;;;;;2.00;1.20;;;5.40;99.90;;;;;;5020221;28;20171;-82
2022/04/08 05:15:54;;;;;;;3.17;1.47;;;5.30;99.90;;;;;;5022399;28;20175;-82
2022/04/08 05:18:20;;;;;;;1.40;1.30;;;5.30;99.90;;;;;;5021899;28;20248;-82
2022/04/08 05:20:46;;;;;;;3.33;1.27;;;5.20;99.90;;;;;;5021431;28;20221;-82
2022/04/08 05:23:11;;;;;;;1.67;1.03;;;5.30;99.90;;;;;;5018877;28;20258;-83
2022/04/08 05:25:37;;;;;;;3.83;1.30;;;5.30;99.90;;;;;;5020922;28;20510;-81
2022/04/08 05:28:03;;;;;;;2.40;1.30;;;;;;;;;;5019209;28;20202;-83
2022/04/08 05:30:29;;;;;;;8.77;5.47;;;5.30;99.90;;;;;;5019793;28;20186;-82
2022/04/08 05:32:55;;;;;;;3.43;2.27;;;5.30;99.90;;;;;;5019632;28;20406;-82
2022/04/08 05:35:21;;;;;;;10.17;3.10;;;5.30;99.90;;;;;;5020208;28;20254;-82
2022/04/08 05:37:48;;;;;;;2.37;2.17;;;5.30;99.90;;;;;;5019145;28;20456;-82
2022/04/08 05:40:17;;;;;;;4.50;3.20;;;5.30;99.90;;;;;;5018254;28;20203;-82
2022/04/08 05:42:46;;;;;;;2.27;2.07;;;5.40;99.90;;;;;;5017732;28;20429;-82
2022/04/08 05:45:14;;;;;;;4.77;1.90;;;5.40;99.90;;;;;;5019200;28;20907;-82
2022/04/08 05:47:40;;;;;;;3.33;1.60;;;5.40;99.90;;;;;;5018723;28;20480;-81
2022/04/08 05:50:07;;;;;;;2.10;1.40;;;5.40;99.90;;;;;;5016924;28;20425;-81
2022/04/08 05:52:33;;;;;;;2.50;1.60;;;5.40;99.90;;;;;;5018460;28;20226;-81
2022/04/08 05:54:58;;;;;;;3.13;1.90;;;5.50;99.90;;;;;;5016527;28;20422;-81
2022/04/08 05:57:24;;;;;;;3.57;1.70;;;5.50;99.90;;;;;;5017776;28;20418;-82
2022/04/08 05:59:50;;;;;;;2.30;1.80;;;5.50;99.90;;;;;;5018021;28;20258;-82
2022/04/08 06:02:17;;;;;;;1.40;1.30;;;5.50;99.90;;;;;;5018955;28;20702;-82
2022/04/08 06:04:42;;;;;;;3.33;1.43;;;5.50;99.90;;;;;;5018066;28;20644;-82
2022/04/08 06:07:08;;;;;;;1.70;1.33;;;5.60;99.90;;;;;;5016488;28;20418;-82
2022/04/08 06:09:34;;;;;;;1.30;1.20;;;5.70;99.90;;;;;;5017314;28;20206;-82
2022/04/08 06:12:00;;;;;;;1.83;1.60;;;5.70;99.90;;;;;;5016483;28;20206;-82
2022/04/08 06:14:26;;;;;;;1.43;1.13;;;;;;;;;;5017747;28;20262;-82
2022/04/08 06:16:55;;;;;;;1.33;1.23;;;5.80;99.90;;;;;;5017345;28;20488;-82
2022/04/08 06:19:20;;;;;;;5.87;1.70;;;5.80;99.90;;;;;;5016319;28;20449;-82
2022/04/08 06:21:46;;;;;;;1.97;1.30;;;5.90;99.90;;;;;;5017944;28;20414;-82
2022/04/08 06:24:12;;;;;;;1.37;1.10;;;5.90;99.90;;;;;;5016304;28;20523;-82
2022/04/08 06:26:38;;;;;;;2.17;1.60;;;5.90;99.90;;;;;;5017124;28;20692;-81
2022/04/08 06:29:04;;;;;;;1.30;1.20;;;6.10;99.90;;;;;;5017092;28;20199;-82
2022/04/08 06:31:32;;;;;;;4.57;2.93;;;6.10;99.90;;;;;;5017139;28;20687;-82
2022/04/08 06:33:59;;;;;;;16.43;7.30;;;6.10;99.90;;;;;;5016878;28;20178;-82
2022/04/08 06:36:25;;;;;;;2.90;2.17;;;;;;;;;;5017239;28;20179;-82
2022/04/08 06:38:51;;;;;;;1.47;1.37;;;6.20;99.90;;;;;;5016010;28;20437;-81
2022/04/08 06:41:17;;;;;;;2.73;1.57;;;;;;;;;;5016446;28;20190;-82
2022/04/08 06:43:42;;;;;;;1.50;1.40;;;6.30;99.90;;;;;;5016250;28;20183;-82
2022/04/08 06:46:09;;;;;;;1.37;1.20;;;;;;;;;;5017054;28;20246;-82
2022/04/08 06:48:35;;;;;;;2.63;1.27;;;;;;;;;;5015952;28;20461;-82
2022/04/08 06:51:04;;;;;;;1.20;1.07;;;6.50;99.90;;;;;;5016626;28;20487;-82
2022/04/08 06:53:30;;;;;;;1.53;1.20;;;6.60;99.90;;;;;;5015276;28;20246;-82
2022/04/08 06:55:56;;;;;;;2.87;1.40;;;6.70;99.90;;;;;;5016047;28;20594;-82
2022/04/08 06:58:26;;;;;;;1.43;1.00;;;6.80;99.90;;;;;;5015683;28;20294;-82
2022/04/08 07:00:52;;;;;;;3.23;1.40;;;6.80;99.90;;;;;;5015359;28;20175;-82
2022/04/08 07:03:19;;;;;;;2.97;1.13;;;;;;;;;;5014149;28;20966;-82
2022/04/08 07:05:45;;;;;;;1.63;1.10;;;6.90;99.90;;;;;;5014363;28;20437;-82
2022/04/08 07:08:10;;;;;;;3.30;1.07;;;7.00;99.90;;;;;;5016037;28;20179;-81
2022/04/08 07:10:38;;;;;;;1.97;0.90;;;7.00;99.90;;;;;;5015117;28;20182;-82
2022/04/08 07:13:05;;;;;;;1.03;0.90;;;7.00;99.90;;;;;;5013505;28;20731;-82
2022/04/08 07:15:31;;;;;;;2.07;1.20;;;7.10;99.90;;;;;;5015027;28;20184;-83
2022/04/08 07:17:57;;;;;;;1.57;1.00;;;7.10;99.90;;;;;;5015660;28;20175;-81
2022/04/08 07:20:23;;;;;;;1.00;0.90;;;7.20;99.90;;;;;;5018267;28;20201;-82
2022/04/08 07:22:49;;;;;;;0.70;0.70;;;7.20;99.90;;;;;;5016147;28;20179;-83
2022/04/08 07:25:15;;;;;;;1.10;0.80;;;7.20;99.90;;;;;;5016134;28;20194;-82
2022/04/08 07:27:51;;;;;;;3.63;1.00;;;7.20;99.90;;;;;;5016462;28;20175;-82
2022/04/08 07:30:19;;;;;;;2.87;1.00;;;7.20;99.90;;;;;;5016153;28;20205;-82
2022/04/08 07:32:46;;;;;;;0.87;0.80;;;7.30;99.90;;;;;;5016195;28;20302;-83
2022/04/08 07:35:12;;;;;;;1.00;0.80;;;7.30;99.90;;;;;;5015748;28;20209;-82
2022/04/08 07:37:37;;;;;;;1.53;1.10;;;7.30;99.90;;;;;;5018712;28;20186;-83
2022/04/08 07:40:08;;;;;;;1.13;1.00;;;7.40;99.90;;;;;;5019116;28;20292;-82
2022/04/08 07:42:34;;;;;;;0.70;0.70;;;7.40;99.90;;;;;;5020042;28;20545;-82
2022/04/08 07:45:00;;;;;;;1.43;0.70;;;7.50;99.90;;;;;;5017845;28;20195;-82
2022/04/08 07:47:29;;;;;;;2.00;0.83;;;7.60;99.90;;;;;;5017008;28;20191;-82
2022/04/08 07:49:59;;;;;;;0.67;0.60;;;7.60;99.90;;;;;;5016768;28;20278;-83
2022/04/08 07:52:26;;;;;;;2.10;1.67;;;7.60;99.90;;;;;;5016019;28;20703;-80
2022/04/08 07:54:53;;;;;;;1.53;1.13;;;7.60;99.90;;;;;;5018089;28;20199;-83
2022/04/08 07:57:18;;;;;;;1.10;0.63;;;7.60;99.90;;;;;;5016681;28;20176;-81
2022/04/08 07:59:44;;;;;;;1.17;0.90;;;7.60;99.90;;;;;;5016585;28;20206;-82
2022/04/08 08:02:10;;;;;;;0.70;0.50;;;7.60;99.90;;;;;;5017754;28;20513;-83
2022/04/08 08:04:39;;;;;;;0.77;0.50;;;7.60;99.90;;;;;;5017147;28;20183;-81
2022/04/08 08:07:06;;;;;;;1.13;0.70;;;7.50;99.90;;;;;;5017355;28;20555;-81
2022/04/08 08:09:33;;;;;;;1.70;0.90;;;7.60;99.90;;;;;;5016882;28;20500;-82
2022/04/08 08:11:59;;;;;;;2.50;1.30;;;7.60;99.90;;;;;;5018798;28;20204;-82
2022/04/08 08:14:25;;;;;;;0.77;0.70;;;7.70;99.90;;;;;;5018830;28;20180;-82
2022/04/08 08:16:51;;;;;;;1.33;1.00;;;7.70;99.90;;;;;;5019833;28;20302;-82
2022/04/08 08:19:16;;;;;;;1.63;0.70;;;7.70;99.90;;;;;;5021837;28;20198;-82
2022/04/08 08:21:42;;;;;;;0.70;0.70;;;7.80;99.90;;;;;;5024813;28;20182;-82
2022/04/08 08:24:08;;;;;;;1.00;0.83;;;7.80;99.90;;;;;;5022325;28;20577;-82
2022/04/08 08:26:34;;;;;;;1.00;0.80;;;7.90;99.90;;;;;;5025420;28;20186;-82
2022/04/08 08:29:00;;;;;;;0.93;0.80;;;7.90;99.90;;;;;;5023925;28;20199;-83
2022/04/08 08:31:26;;;;;;;0.53;0.53;;;7.90;99.90;;;;;;5022508;28;20229;-82
2022/04/08 08:33:52;;;;;;;1.77;1.10;;;;;;;;;;5023361;28;20180;-83
2022/04/08 08:36:17;;;;;;;5.30;3.70;;;7.90;99.90;;;;;;5023101;28;20179;-82
2022/04/08 08:38:43;;;;;;;0.90;0.90;;;8.10;99.90;;;;;;5024734;28;20196;-82
2022/04/08 08:41:10;;;;;;;1.47;0.90;;;;;;;;;;5023069;28;20254;-83
2022/04/08 08:43:37;;;;;;;0.83;0.83;;;8.10;99.90;;;;;;5019872;28;20180;-83
2022/04/08 08:46:06;;;;;;;0.50;0.50;;;8.20;99.90;;;;;;5019947;28;20654;-83
2022/04/08 08:48:34;;;;;;;0.77;0.70;;;8.30;99.90;;;;;;5021263;28;20193;-81
2022/04/08 08:51:02;;;;;;;0.90;0.70;;;8.30;99.90;;;;;;5020098;28;20212;-83
2022/04/08 08:53:29;;;;;;;1.27;0.50;;;8.30;99.90;;;;;;5021115;28;20198;-81
2022/04/08 08:55:55;;;;;;;0.80;0.63;;;8.40;99.90;;;;;;5021201;28;20171;-82
2022/04/08 08:58:21;;;;;;;0.50;0.50;;;8.40;99.90;;;;;;5021127;28;20182;-83
2022/04/08 09:00:47;;;;;;;1.80;0.80;;;8.40;99.90;;;;;;5019962;28;20180;-83
2022/04/08 09:03:13;;;;;;;0.90;0.70;;;;;;;;;;5021048;28;20175;-83
2022/04/08 09:05:47;;;;;;;0.60;0.60;;;8.50;99.90;;;;;;5020453;28;20188;-83
2022/04/08 09:08:13;;;;;;;0.50;0.50;;;8.90;99.90;;;;;;5020126;28;20322;-83
2022/04/08 09:10:48;;;;;;;0.50;0.50;;;8.80;99.90;;;;;;5019765;28;20217;-83
2022/04/08 09:13:20;;;;;;;1.83;1.00;;;9.10;99.90;;;;;;5019533;28;20202;-83
2022/04/08 09:15:57;;;;;;;1.23;0.87;;;9.00;99.90;;;;;;5019606;28;20541;-83
2022/04/08 09:18:23;;;;;;;2.40;1.80;;;9.00;99.90;;;;;;5020644;28;20175;-82
2022/04/08 09:20:50;;;;;;;0.60;0.60;;;9.00;99.90;;;;;;5023811;28;20195;-81
2022/04/08 09:23:18;;;;;;;1.30;1.20;;;9.10;99.90;;;;;;5021782;28;20165;-83
2022/04/08 09:25:47;;;;;;;1.43;0.73;;;9.10;99.90;;;;;;5021438;28;20176;-82
2022/04/08 09:28:17;;;;;;;1.67;0.90;;;9.30;99.90;;;;;;5022834;28;20238;-82
2022/04/08 09:30:53;;;;;;;0.93;0.73;;;9.30;99.90;;;;;;5022356;28;20167;-81
2022/04/08 09:33:21;;;;;;;0.40;0.40;;;9.40;99.90;;;;;;5022897;28;20178;-82
2022/04/08 09:35:47;;;;;;;0.50;0.50;;;9.40;99.90;;;;;;5021868;28;20187;-83
2022/04/08 09:38:21;;;;;;;2.20;1.40;;;9.50;99.90;;;;;;5022883;28;20218;-83
2022/04/08 09:40:47;;;;;;;2.57;1.10;;;9.50;99.90;;;;;;5026273;28;20190;-83
2022/04/08 09:43:14;;;;;;;0.90;0.70;;;9.50;99.90;;;;;;5037039;28;20187;-82
2022/04/08 09:45:40;;;;;;;0.93;0.70;;;9.50;99.90;;;;;;5035499;28;20233;-82
2022/04/08 09:48:07;;;;;;;2.20;0.60;;;9.40;99.90;;;;;;5028963;28;20187;-82
2022/04/08 09:50:37;;;;;;;1.00;0.60;;;9.40;99.90;;;;;;5017088;28;20203;-81
2022/04/08 09:53:04;;;;;;;3.07;1.87;;;9.40;99.90;;;;;;5018095;28;20193;-82
2022/04/08 09:55:30;;;;;;;0.40;0.37;;;9.50;99.90;;;;;;5017499;28;20185;-83
2022/04/08 09:58:04;;;;;;;1.20;0.67;;;9.60;99.90;;;;;;5018410;28;20177;-81
2022/04/08 10:00:32;;;;;;;0.87;0.43;;;9.60;99.90;;;;;;5018159;28;20692;-81
2022/04/08 10:03:01;;;;;;;0.60;0.50;;;9.80;99.90;;;;;;5018568;28;20175;-82
2022/04/08 10:05:27;;;;;;;1.40;0.90;;;10.00;99.90;;;;;;5016354;28;20202;-81
2022/04/08 10:07:55;;;;;;;0.50;0.50;;;10.00;99.90;;;;;;5018013;28;20572;-81
2022/04/08 10:10:30;;;;;;;0.80;0.77;;;10.00;99.90;;;;;;5016149;28;20209;-81
2022/04/08 10:12:56;;;;;;;0.90;0.80;;;10.10;99.90;;;;;;5017049;28;20193;-81
2022/04/08 10:15:37;;;;;;;1.53;0.70;;;10.20;99.90;;;;;;5017689;28;20522;-82
2022/04/08 10:18:04;;;;;;;0.70;0.70;;;10.30;99.90;;;;;;5016028;28;20539;-82
2022/04/08 10:20:32;;;;;;;0.53;0.47;;;10.20;99.90;;;;;;5016292;28;20184;-81
2022/04/08 10:23:08;;;;;;;1.60;0.83;;;10.10;99.90;;;;;;5016130;28;20197;-82
2022/04/08 10:25:37;;;;;;;0.73;0.70;;;10.20;99.90;;;;;;5014639;28;20188;-83
2022/04/08 10:28:04;;;;;;;2.67;1.23;;;10.10;99.90;;;;;;5014872;28;20276;-83
2022/04/08 10:30:34;;;;;;;1.40;0.60;;;10.00;99.90;;;;;;5018560;28;20210;-83
2022/04/08 10:33:01;;;;;;;1.37;1.00;;;10.20;99.90;;;;;;5021533;28;20752;-82
2022/04/08 10:35:27;;;;;;;1.60;1.10;;;10.20;99.90;;;;;;5020826;28;20239;-82
2022/04/08 10:38:01;;;;;;;3.23;0.60;;;10.30;99.90;;;;;;5021069;28;20258;-82
2022/04/08 10:40:34;;;;;;;1.07;0.60;;;10.30;99.90;;;;;;5021029;28;20218;-83
2022/04/08 10:43:05;;;;;;;0.80;0.60;;;10.40;99.90;;;;;;5018788;28;20185;-83
2022/04/08 10:45:31;;;;;;;1.10;0.80;;;10.50;99.90;;;;;;5020238;28;20233;-83
2022/04/08 10:48:11;;;;;;;0.57;0.50;;;10.50;99.90;;;;;;5020895;28;20633;-83
2022/04/08 10:50:39;;;;;;;1.07;0.60;;;10.50;99.90;;;;;;5020846;28;20171;-83
2022/04/08 10:53:07;;;;;;;1.13;0.50;;;10.50;99.90;;;;;;5020589;28;20210;-82
2022/04/08 10:55:47;;;;;;;1.07;0.70;;;10.70;99.90;;;;;;5020697;28;20181;-83
2022/04/08 10:58:15;;;;;;;2.57;1.37;;;11.10;99.90;;;;;;5018668;28;20170;-82
2022/04/08 11:00:42;;;;;;;0.80;0.63;;;11.10;99.90;;;;;;5019986;28;20209;-82
2022/04/08 11:03:11;;;;;;;1.33;0.67;;;11.30;99.90;;;;;;5021451;28;20166;-83
2022/04/08 11:05:39;;;;;;;1.00;0.77;;;11.40;99.90;;;;;;5020902;28;20186;-83
2022/04/08 11:08:07;;;;;;;1.03;0.80;;;11.50;99.90;;;;;;5019912;28;20186;-84
2022/04/08 11:10:33;;;;;;;0.60;0.60;;;11.90;99.90;;;;;;5020066;28;20187;-82
2022/04/08 11:13:02;;;;;;;0.70;0.57;;;11.90;99.90;;;;;;5021042;28;20233;-83
2022/04/08 11:15:28;;;;;;;1.00;0.60;;;11.80;99.90;;;;;;5023180;28;20193;-82
2022/04/08 11:17:54;;;;;;;1.73;0.67;;;11.90;99.90;;;;;;5029418;28;20175;-82
2022/04/08 11:20:21;;;;;;;1.13;0.57;;;12.00;99.90;;;;;;5024019;28;20776;-83
2022/04/08 11:22:52;;;;;;;0.93;0.60;;;12.00;99.90;;;;;;5022863;28;20210;-79
2022/04/08 11:25:24;;;;;;;0.60;0.60;;;12.20;99.90;;;;;;5021922;28;20175;-82
2022/04/08 11:28:05;;;;;;;1.00;0.67;;;12.30;99.90;;;;;;5022076;28;20269;-80
2022/04/08 11:30:32;;;;;;;0.60;0.50;;;12.30;99.90;;;;;;5022784;28;20273;-83
2022/04/08 11:32:58;;;;;;;0.70;0.70;;;12.50;99.90;;;;;;5022047;28;20668;-82
2022/04/08 11:35:32;;;;;;;1.00;0.70;;;12.70;99.90;;;;;;5022433;28;20246;-83
2022/04/08 11:37:58;;;;;;;0.60;0.60;;;12.90;99.90;;;;;;5023581;28;20222;-83
2022/04/08 11:40:24;;;;;;;0.60;0.60;;;13.40;99.90;;;;;;5023842;28;20277;-82
2022/04/08 11:42:50;;;;;;;0.63;0.63;;;13.70;99.90;;;;;;5023237;28;20183;-82
2022/04/08 11:45:16;;;;;;;1.57;0.60;;;13.70;99.90;;;;;;5022267;28;20258;-79
2022/04/08 11:47:47;;;;;;;0.87;0.80;;;14.10;99.90;;;;;;5025284;28;20250;-78
2022/04/08 11:50:13;;;;;;;1.27;0.70;;;14.40;99.90;;;;;;5016307;28;20290;-81
2022/04/08 11:52:38;;;;;;;2.80;0.50;;;14.70;99.90;;;;;;5032817;28;20206;-82
2022/04/08 11:55:06;;;;;;;0.60;0.60;;;15.10;99.90;;;;;;5028451;28;20178;-82
2022/04/08 11:57:33;;;;;;;0.60;0.60;;;15.20;99.90;;;;;;5024717;28;20179;-85
2022/04/08 12:00:07;;;;;;;0.43;0.43;;;15.20;99.90;;;;;;5023307;28;20295;-81
2022/04/08 12:02:34;;;;;;;0.57;0.57;;;15.20;99.90;;;;;;5025564;28;20189;-83
2022/04/08 12:04:59;;;;;;;0.60;0.60;;;14.90;99.90;;;;;;5025822;28;20175;-82
2022/04/08 12:07:30;;;;;;;0.50;0.50;;;14.80;99.90;;;;;;5025680;28;20258;-83
2022/04/08 12:10:00;;;;;;;0.50;0.50;;;14.70;99.90;;;;;;5024614;28;20205;-82
2022/04/08 12:12:28;;;;;;;0.77;0.70;;;14.80;99.90;;;;;;5026811;28;20206;-83
2022/04/08 12:14:54;;;;;;;0.90;0.77;;;14.20;99.90;;;;;;5026415;28;20178;-82
2022/04/08 12:17:21;;;;;;;0.53;0.50;;;14.70;99.90;;;;;;5023215;28;20178;-82
2022/04/08 12:19:51;;;;;;;0.57;0.57;;;14.30;99.90;;;;;;5024092;28;20628;-82
2022/04/08 12:22:18;;;;;;;0.60;0.60;;;14.10;99.90;;;;;;5022033;28;20182;-82
2022/04/08 12:24:47;;;;;;;0.50;0.50;;;13.80;99.90;;;;;;5021272;28;20260;-82
2022/04/08 12:27:19;;;;;;;0.60;0.60;;;13.60;99.90;;;;;;5020952;28;20269;-82
2022/04/08 12:29:45;;;;;;;0.60;0.50;;;13.50;99.90;;;;;;5020064;28;20204;-83
2022/04/08 12:32:15;;;;;;;0.47;0.40;;;14.20;99.90;;;;;;5019270;28;20294;-82
2022/04/08 12:34:42;;;;;;;0.50;0.50;;;14.30;99.90;;;;;;5018802;28;20177;-81
2022/04/08 12:37:09;;;;;;;1.03;0.90;;;14.50;99.90;;;;;;5017132;28;20277;-82
2022/04/08 12:39:34;;;;;;;0.50;0.50;;;14.40;99.90;;;;;;5017349;28;20568;-81
2022/04/08 12:42:01;;;;;;;1.90;0.70;;;14.10;99.90;;;;;;5016875;28;20183;-80
2022/04/08 12:44:27;;;;;;;0.77;0.40;;;13.90;99.90;;;;;;5017641;28;20218;-81
2022/04/08 12:46:55;;;;;;;0.70;0.50;;;13.80;99.90;;;;;;5018942;28;20183;-80
2022/04/08 12:49:21;;;;;;;0.67;0.50;;;13.70;99.90;;;;;;5020246;28;20571;-82
2022/04/08 12:51:47;;;;;;;0.77;0.50;;;13.60;99.90;;;;;;5018892;28;20207;-81
2022/04/08 12:54:12;;;;;;;0.77;0.60;;;13.60;99.90;;;;;;5021022;28;20636;-81
2022/04/08 12:56:39;;;;;;;0.50;0.40;;;13.50;99.90;;;;;;5020675;28;20678;-82
2022/04/08 12:59:05;;;;;;;0.53;0.53;;;13.50;99.90;;;;;;5021043;28;20217;-83